createdAt,value
2023-03-26T00:00:35.097Z,8.00
2023-03-26T00:05:37.055Z,8.00
2023-03-26T00:10:40.492Z,8.00
2023-03-26T00:15:42.234Z,8.00
2023-03-26T00:20:45.401Z,7.90
2023-03-26T00:25:50.833Z,7.80
2023-03-26T00:31:00.966Z,7.70
2023-03-26T00:36:04.409Z,7.70
2023-03-26T00:41:17.305Z,7.60
2023-03-26T00:46:19.532Z,7.60
2023-03-26T00:51:22.039Z,7.60
2023-03-26T00:56:24.126Z,7.70
2023-03-26T01:01:28.648Z,7.70
2023-03-26T01:06:36.172Z,7.90
2023-03-26T01:11:38.595Z,7.90
2023-03-26T01:16:47.113Z,8.00
2023-03-26T01:21:49.114Z,8.10
2023-03-26T01:27:04.312Z,8.00
2023-03-26T01:32:28.814Z,8.00
2023-03-26T01:37:59.612Z,8.00
2023-03-26T01:43:36.158Z,8.00
2023-03-26T01:48:44.643Z,8.10
2023-03-26T01:53:48.081Z,8.10
2023-03-26T01:59:16.746Z,8.10
2023-03-26T02:04:41.040Z,7.80
2023-03-26T02:09:47.295Z,7.90
2023-03-26T02:14:49.457Z,7.80
2023-03-26T02:19:54.270Z,7.80
2023-03-26T02:24:56.340Z,7.80
2023-03-26T02:29:58.793Z,7.90
2023-03-26T02:35:01.410Z,7.80
2023-03-26T02:40:06.265Z,7.70
2023-03-26T02:45:08.702Z,7.60
2023-03-26T02:50:32.481Z,7.70
2023-03-26T02:55:53.160Z,7.60
2023-03-26T03:00:57.804Z,7.60
2023-03-26T03:06:05.462Z,7.50
2023-03-26T03:11:18.202Z,7.50
2023-03-26T03:16:22.042Z,7.60
2023-03-26T03:21:25.289Z,7.40
2023-03-26T03:26:29.631Z,7.30
2023-03-26T03:31:33.291Z,7.10
2023-03-26T03:36:39.468Z,7.00
2023-03-26T03:41:51.022Z,7.00
2023-03-26T03:46:55.498Z,7.00
2023-03-26T03:51:57.425Z,7.00
2023-03-26T03:57:05.196Z,6.90
2023-03-26T04:02:07.199Z,7.00
2023-03-26T04:07:16.247Z,7.00
2023-03-26T04:12:40.671Z,7.00
2023-03-26T04:17:45.255Z,7.10
2023-03-26T04:22:49.651Z,7.00
2023-03-26T04:27:55.653Z,6.90
2023-03-26T04:33:17.770Z,6.80
2023-03-26T04:38:19.931Z,6.90
2023-03-26T04:43:26.348Z,6.80
2023-03-26T04:48:52.028Z,6.80
2023-03-26T04:53:55.493Z,6.80
2023-03-26T04:59:03.603Z,6.80
2023-03-26T05:04:09.613Z,6.80
2023-03-26T05:09:11.634Z,6.90
2023-03-26T05:14:31.932Z,7.10
2023-03-26T05:19:36.968Z,7.10
2023-03-26T05:24:39.854Z,7.30
2023-03-26T05:29:42.217Z,7.30
2023-03-26T05:34:44.349Z,7.30
2023-03-26T05:39:47.818Z,7.40
2023-03-26T05:45:10.752Z,7.40
2023-03-26T05:50:13.240Z,7.60
2023-03-26T05:55:18.561Z,7.60
2023-03-26T06:00:39.159Z,7.80
2023-03-26T06:05:44.342Z,7.90
2023-03-26T06:10:58.667Z,8.10
2023-03-26T06:16:00.524Z,8.30
2023-03-26T06:21:07.737Z,8.40
2023-03-26T06:26:35.760Z,8.50
2023-03-26T06:32:01.412Z,8.60
2023-03-26T06:37:17.570Z,8.60
2023-03-26T06:42:21.390Z,8.70
2023-03-26T06:48:13.519Z,8.90
2023-03-26T06:53:44.534Z,8.90
2023-03-26T06:59:06.338Z,9.10
2023-03-26T07:04:26.732Z,9.20
2023-03-26T07:09:47.995Z,9.40
2023-03-26T07:15:15.733Z,9.40
2023-03-26T07:20:29.110Z,9.20
2023-03-26T07:25:31.435Z,9.40
2023-03-26T07:31:03.395Z,9.90
2023-03-26T07:36:30.062Z,10.20
2023-03-26T07:41:51.223Z,10.10
2023-03-26T07:47:26.328Z,10.20
2023-03-26T07:52:50.931Z,10.50
2023-03-26T07:58:05.227Z,10.40
2023-03-26T08:03:57.564Z,10.50
2023-03-26T08:09:54.216Z,10.50
2023-03-26T08:15:25.715Z,10.50
2023-03-26T08:20:43.564Z,10.60
2023-03-26T08:26:19.622Z,10.60
2023-03-26T08:31:32.982Z,10.00
2023-03-26T08:36:34.795Z,10.10
2023-03-26T08:42:29.100Z,9.90
2023-03-26T08:48:15.464Z,10.00
2023-03-26T08:53:38.930Z,9.90
2023-03-26T08:59:15.418Z,10.10
2023-03-26T09:05:01.163Z,10.20
2023-03-26T09:10:28.344Z,10.00
2023-03-26T09:15:58.182Z,9.80
2023-03-26T09:21:27.526Z,9.50
2023-03-26T09:27:16.670Z,9.50
2023-03-26T09:32:37.462Z,9.50
2023-03-26T09:37:56.869Z,9.60
2023-03-26T09:43:23.152Z,9.60
2023-03-26T09:48:31.127Z,9.60
2023-03-26T09:53:57.367Z,9.50
2023-03-26T09:59:08.158Z,9.60
2023-03-26T10:04:35.694Z,9.80
2023-03-26T10:09:48.253Z,9.70
2023-03-26T10:15:21.151Z,9.60
2023-03-26T10:20:42.823Z,9.60
2023-03-26T10:25:56.699Z,9.60
2023-03-26T10:31:23.826Z,9.80
2023-03-26T10:36:34.221Z,9.90
2023-03-26T10:41:54.301Z,9.90
2023-03-26T10:47:14.660Z,10.00
2023-03-26T10:52:23.355Z,9.80
2023-03-26T10:57:34.064Z,9.80
2023-03-26T11:02:44.663Z,9.70
2023-03-26T11:08:08.837Z,10.10
2023-03-26T11:13:25.974Z,10.60
2023-03-26T11:18:53.289Z,10.50
2023-03-26T11:24:22.819Z,9.70
2023-03-26T11:29:33.597Z,9.80
2023-03-26T11:34:42.985Z,9.60
2023-03-26T11:39:55.905Z,9.70
2023-03-26T11:45:05.502Z,9.70
2023-03-26T11:50:20.642Z,9.90
2023-03-26T11:55:25.483Z,10.80
2023-03-26T12:00:29.616Z,11.40
2023-03-26T12:05:34.192Z,12.00
2023-03-26T12:10:42.894Z,12.90
2023-03-26T12:15:46.669Z,14.00
2023-03-26T12:20:49.320Z,12.70
2023-03-26T12:26:24.709Z,12.40
2023-03-26T12:31:30.325Z,13.00
2023-03-26T12:36:33.744Z,12.70
2023-03-26T12:44:47.043Z,13.40
2023-03-26T12:47:56.896Z,13.90
2023-03-26T12:52:49.569Z,13.60
2023-03-26T12:58:15.423Z,14.40
2023-03-26T13:03:41.895Z,14.40
2023-03-26T13:08:58.633Z,13.90
2023-03-26T13:14:23.984Z,12.80
2023-03-26T13:19:47.838Z,13.10
2023-03-26T13:25:04.184Z,13.00
2023-03-26T13:30:15.353Z,13.00
2023-03-26T13:35:33.163Z,14.30
2023-03-26T13:41:01.076Z,15.20
2023-03-26T13:46:21.611Z,14.40
2023-03-26T13:51:39.820Z,14.20
2023-03-26T13:56:51.199Z,14.10
2023-03-26T14:02:08.868Z,14.40
2023-03-26T14:07:24.826Z,14.10
2023-03-26T14:12:38.534Z,13.60
2023-03-26T14:17:48.221Z,13.20
2023-03-26T14:22:55.773Z,12.90
2023-03-26T14:28:19.191Z,12.00
2023-03-26T14:33:34.066Z,12.30
2023-03-26T14:38:59.119Z,13.90
2023-03-26T14:44:47.558Z,13.90
2023-03-26T14:50:46.604Z,14.60
2023-03-26T14:56:09.533Z,15.20
2023-03-26T15:01:26.704Z,13.70
2023-03-26T15:06:51.243Z,12.60
2023-03-26T15:12:12.642Z,11.70
2023-03-26T15:17:39.642Z,11.40
2023-03-26T15:22:41.420Z,11.40
2023-03-26T15:28:27.633Z,11.40
2023-03-26T15:33:54.018Z,11.20
2023-03-26T15:39:33.538Z,11.30
2023-03-26T15:45:22.241Z,11.50
2023-03-26T15:50:38.105Z,11.60
2023-03-26T15:55:52.995Z,11.70
2023-03-26T16:01:09.432Z,11.80
2023-03-26T16:06:30.808Z,11.80
2023-03-26T16:11:56.262Z,11.60
2023-03-26T16:17:00.962Z,11.60
2023-03-26T16:22:12.393Z,11.60
2023-03-26T16:27:14.235Z,11.50
2023-03-26T16:32:17.435Z,11.40
2023-03-26T16:37:40.133Z,11.20
2023-03-26T16:42:50.293Z,11.10
2023-03-26T16:48:19.560Z,10.90
2023-03-26T16:53:52.284Z,10.60
2023-03-26T16:58:59.336Z,10.10
2023-03-26T17:04:23.514Z,10.30
2023-03-26T17:09:25.482Z,10.60
2023-03-26T17:14:34.414Z,10.30
2023-03-26T17:19:48.956Z,10.20
2023-03-26T17:24:57.996Z,10.10
2023-03-26T17:30:46.912Z,10.20
2023-03-26T17:35:51.014Z,10.40
2023-03-26T17:41:00.922Z,10.30
2023-03-26T17:46:10.777Z,10.10
2023-03-26T17:51:12.700Z,9.90
2023-03-26T17:56:22.622Z,9.80
2023-03-26T18:01:41.335Z,9.70
2023-03-26T18:07:17.020Z,9.70
2023-03-26T18:12:54.817Z,9.50
2023-03-26T18:18:19.846Z,9.50
2023-03-26T18:23:35.128Z,9.50
2023-03-26T18:28:42.538Z,9.50
2023-03-26T18:33:49.629Z,9.30
2023-03-26T18:38:55.994Z,9.20
2023-03-26T18:44:02.406Z,9.30
2023-03-26T18:49:04.484Z,9.30
2023-03-26T18:54:08.106Z,9.30
2023-03-26T18:59:32.024Z,9.10
2023-03-26T19:04:36.855Z,9.20
2023-03-26T19:09:39.458Z,8.90
2023-03-26T19:14:58.014Z,9.10
2023-03-26T19:20:00.604Z,9.10
2023-03-26T19:25:03.317Z,9.00
2023-03-26T19:30:05.678Z,9.00
2023-03-26T19:35:22.823Z,8.80
2023-03-26T19:40:30.502Z,8.90
2023-03-26T19:45:34.566Z,8.90
2023-03-26T19:50:42.127Z,9.00
2023-03-26T19:56:05.279Z,8.90
2023-03-26T20:01:18.759Z,8.90
2023-03-26T20:06:30.814Z,8.90
2023-03-26T20:11:40.704Z,8.80
2023-03-26T20:22:07.974Z,8.70
2023-03-26T20:27:09.882Z,8.60
2023-03-26T20:32:23.049Z,8.70
2023-03-26T20:37:26.285Z,8.60
2023-03-26T20:42:27.977Z,8.70
2023-03-26T20:47:29.732Z,8.60
2023-03-26T20:52:31.491Z,8.60
2023-03-26T20:57:35.900Z,8.60
2023-03-26T21:02:37.773Z,8.60
2023-03-26T21:07:39.895Z,8.50
2023-03-26T21:13:04.232Z,8.50
2023-03-26T21:18:06.508Z,8.40
2023-03-26T21:23:13.227Z,8.60
2023-03-26T21:28:28.941Z,8.70
2023-03-26T21:33:37.365Z,8.60
2023-03-26T21:38:39.845Z,8.60
2023-03-26T21:43:41.738Z,8.60
2023-03-26T21:48:43.657Z,8.60
2023-03-26T21:53:45.807Z,8.60
2023-03-26T21:59:01.438Z,8.60
2023-03-26T22:04:14.218Z,8.70
2023-03-26T22:09:18.521Z,8.70
2023-03-26T22:14:22.502Z,8.60
2023-03-26T22:19:24.352Z,8.70
2023-03-26T22:24:26.167Z,8.60
2023-03-26T22:29:28.004Z,8.60
2023-03-26T22:34:30.628Z,8.60
2023-03-26T22:39:32.328Z,8.70
2023-03-26T22:44:34.048Z,8.60
2023-03-26T22:49:35.916Z,8.30
2023-03-26T22:54:38.585Z,8.40
2023-03-26T22:59:40.279Z,8.00
2023-03-26T23:04:42.621Z,8.10
2023-03-26T23:09:45.611Z,7.90
2023-03-26T23:14:52.196Z,7.90
2023-03-26T23:19:54.182Z,8.00
2023-03-26T23:24:55.883Z,7.80
2023-03-26T23:29:58.003Z,7.70
2023-03-26T23:34:59.767Z,7.70
2023-03-26T23:40:01.474Z,7.70
2023-03-26T23:45:04.715Z,7.30
2023-03-26T23:50:07.790Z,7.50
2023-03-26T23:55:09.871Z,7.40
